createdAt,value
2017-01-16T00:00:54.154Z,-3.29
2017-01-16T00:01:54.536Z,-3.35
2017-01-16T00:02:54.121Z,-3.33
2017-01-16T00:03:54.100Z,-3.36
2017-01-16T00:04:54.079Z,-3.35
2017-01-16T00:05:54.060Z,-3.36
2017-01-16T00:06:54.041Z,-3.45
2017-01-16T00:07:54.022Z,-3.43
2017-01-16T00:08:54.003Z,-3.4
2017-01-16T00:09:53.978Z,-3.4
2017-01-16T00:10:53.957Z,-3.4
2017-01-16T00:11:53.943Z,-3.38
2017-01-16T00:12:53.921Z,-3.43
2017-01-16T00:13:53.907Z,-3.48
2017-01-16T00:14:53.884Z,-3.43
2017-01-16T00:15:53.863Z,-3.4
2017-01-16T00:16:53.845Z,-3.45
2017-01-16T00:17:53.821Z,-3.48
2017-01-16T00:18:53.804Z,-3.47
2017-01-16T00:19:53.784Z,-3.38
2017-01-16T00:20:53.761Z,-3.45
2017-01-16T00:21:53.748Z,-3.43
2017-01-16T00:22:53.731Z,-3.48
2017-01-16T00:23:53.704Z,-3.54
2017-01-16T00:24:53.687Z,-3.47
2017-01-16T00:25:53.668Z,-3.54
2017-01-16T00:26:53.647Z,-3.51
2017-01-16T00:27:53.625Z,-3.48
2017-01-16T00:28:53.608Z,-3.56
2017-01-16T00:29:53.600Z,-3.54
2017-01-16T00:30:53.568Z,-3.54
2017-01-16T00:31:53.552Z,-3.54
2017-01-16T00:32:53.527Z,-3.65
2017-01-16T00:33:53.511Z,-3.61
2017-01-16T00:34:53.489Z,-3.53
2017-01-16T00:35:53.467Z,-3.65
2017-01-16T00:36:53.449Z,-3.63
2017-01-16T00:37:53.429Z,-3.6
2017-01-16T00:38:53.407Z,-3.72
2017-01-16T00:39:53.393Z,-3.72
2017-01-16T00:40:53.368Z,-3.72
2017-01-16T00:41:53.350Z,-3.72
2017-01-16T00:42:53.328Z,-3.75
2017-01-16T00:43:53.311Z,-3.72
2017-01-16T00:44:53.291Z,-3.68
2017-01-16T00:45:53.269Z,-3.63
2017-01-16T00:46:53.251Z,-3.66
2017-01-16T00:47:53.234Z,-3.69
2017-01-16T00:48:53.211Z,-3.71
2017-01-16T00:49:53.194Z,-3.71
2017-01-16T00:50:53.173Z,-3.77
2017-01-16T00:51:53.151Z,-3.72
2017-01-16T00:52:53.131Z,-3.83
2017-01-16T00:53:53.117Z,-3.76
2017-01-16T00:54:53.095Z,-3.76
2017-01-16T00:55:53.070Z,-3.76
2017-01-16T00:56:53.057Z,-3.72
2017-01-16T00:57:53.047Z,-3.61
2017-01-16T00:58:53.014Z,-3.71
2017-01-16T00:59:52.998Z,-3.65
2017-01-16T01:00:52.973Z,-3.66
2017-01-16T01:01:52.959Z,-3.68
2017-01-16T01:02:52.935Z,-3.71
2017-01-16T01:03:52.916Z,-3.75
2017-01-16T01:04:52.895Z,-3.72
2017-01-16T01:05:52.874Z,-3.71
2017-01-16T01:06:52.857Z,-3.76
2017-01-16T01:07:52.841Z,-3.75
2017-01-16T01:08:52.828Z,-3.79
2017-01-16T01:09:52.797Z,-3.75
2017-01-16T01:10:52.774Z,-3.88
2017-01-16T01:11:52.758Z,-3.86
2017-01-16T01:12:52.735Z,-3.8
2017-01-16T01:13:52.718Z,-3.8
2017-01-16T01:14:52.699Z,-3.77
2017-01-16T01:15:52.678Z,-3.72
2017-01-16T01:16:52.662Z,-3.75
2017-01-16T01:17:53.035Z,-3.77
2017-01-16T01:18:52.617Z,-3.8
2017-01-16T01:19:52.601Z,-3.75
2017-01-16T01:20:52.578Z,-3.79
2017-01-16T01:21:52.559Z,-3.71
2017-01-16T01:22:52.538Z,-3.75
2017-01-16T01:23:52.518Z,-3.82
2017-01-16T01:24:52.505Z,-3.8
2017-01-16T01:25:52.480Z,-3.83
2017-01-16T01:26:52.461Z,-3.86
2017-01-16T01:27:52.442Z,-3.83
2017-01-16T01:28:52.421Z,-3.77
2017-01-16T01:29:52.397Z,-3.83
2017-01-16T01:30:52.384Z,-3.83
2017-01-16T01:31:52.362Z,-3.83
2017-01-16T01:32:52.342Z,-3.82
2017-01-16T01:33:52.320Z,-3.82
2017-01-16T01:34:52.301Z,-3.8
2017-01-16T01:35:52.282Z,-3.8
2017-01-16T01:36:52.261Z,-3.82
2017-01-16T01:37:52.238Z,-3.82
2017-01-16T01:38:52.220Z,-3.87
2017-01-16T01:39:52.200Z,-3.8
2017-01-16T01:40:52.184Z,-3.8
2017-01-16T01:41:52.160Z,-3.82
2017-01-16T01:42:52.142Z,-3.87
2017-01-16T01:43:52.122Z,-3.87
2017-01-16T01:44:52.104Z,-3.8
2017-01-16T01:45:52.085Z,-3.87
2017-01-16T01:46:52.069Z,-3.79
2017-01-16T01:47:52.044Z,-3.82
2017-01-16T01:48:52.023Z,-3.82
2017-01-16T01:49:52.031Z,-3.8
2017-01-16T01:50:51.986Z,-3.86
2017-01-16T01:51:51.976Z,-3.86
2017-01-16T01:52:51.946Z,-3.86
2017-01-16T01:53:51.925Z,-3.8
2017-01-16T01:54:51.909Z,-3.8
2017-01-16T01:55:51.889Z,-3.83
2017-01-16T01:56:51.867Z,-3.8
2017-01-16T01:57:51.845Z,-3.79
2017-01-16T01:58:51.827Z,-3.82
2017-01-16T01:59:51.805Z,-3.83
2017-01-16T02:00:51.787Z,-3.8
2017-01-16T02:01:51.807Z,-3.79
2017-01-16T02:02:51.749Z,-3.87
2017-01-16T02:03:51.725Z,-3.79
2017-01-16T02:04:51.709Z,-3.82
2017-01-16T02:05:51.689Z,-3.82
2017-01-16T02:06:54.819Z,-3.8
2017-01-16T02:07:51.673Z,-3.83
2017-01-16T02:08:51.626Z,-3.87
2017-01-16T02:09:51.605Z,-3.79
2017-01-16T02:10:51.586Z,-3.79
2017-01-16T02:11:51.567Z,-3.88
2017-01-16T02:12:51.548Z,-3.86
2017-01-16T02:13:51.548Z,-3.87
2017-01-16T02:14:51.508Z,-3.82
2017-01-16T02:15:51.486Z,-3.77
2017-01-16T02:16:51.472Z,-3.82
2017-01-16T02:17:51.453Z,-3.83
2017-01-16T02:18:51.431Z,-3.76
2017-01-16T02:19:51.410Z,-3.82
2017-01-16T02:20:51.389Z,-3.82
2017-01-16T02:21:51.372Z,-3.83
2017-01-16T02:22:51.349Z,-3.8
2017-01-16T02:23:51.332Z,-3.76
2017-01-16T02:24:51.311Z,-3.83
2017-01-16T02:25:51.292Z,-3.86
2017-01-16T02:26:51.271Z,-3.83
2017-01-16T02:27:51.281Z,-3.86
2017-01-16T02:28:51.232Z,-3.79
2017-01-16T02:29:51.215Z,-3.83
2017-01-16T02:30:51.200Z,-3.79
2017-01-16T02:31:51.169Z,-3.82
2017-01-16T02:32:51.153Z,-3.83
2017-01-16T02:33:51.157Z,-3.8
2017-01-16T02:34:51.117Z,-3.77
2017-01-16T02:35:51.093Z,-3.75
2017-01-16T02:36:51.074Z,-3.77
2017-01-16T02:37:51.053Z,-3.71
2017-01-16T02:38:51.035Z,-3.87
2017-01-16T02:39:51.011Z,-3.77
2017-01-16T02:40:50.998Z,-3.82
2017-01-16T02:41:50.977Z,-3.82
2017-01-16T02:42:50.954Z,-3.77
2017-01-16T02:43:50.932Z,-3.79
2017-01-16T02:44:50.915Z,-3.77
2017-01-16T02:45:50.896Z,-3.8
2017-01-16T02:46:50.880Z,-3.82
2017-01-16T02:47:50.856Z,-3.86
2017-01-16T02:48:50.836Z,-3.83
2017-01-16T02:49:50.817Z,-3.83
2017-01-16T02:50:50.799Z,-3.77
2017-01-16T02:51:50.926Z,-3.77
2017-01-16T02:52:50.757Z,-3.82
2017-01-16T02:53:50.743Z,-3.79
2017-01-16T02:54:50.720Z,-3.82
2017-01-16T02:55:50.699Z,-3.82
2017-01-16T02:56:50.677Z,-3.86
2017-01-16T02:57:50.662Z,-3.83
2017-01-16T02:58:50.642Z,-3.82
2017-01-16T02:59:50.622Z,-3.8
2017-01-16T03:00:50.600Z,-3.83
2017-01-16T03:01:50.581Z,-3.87
2017-01-16T03:02:50.562Z,-3.86
2017-01-16T03:03:50.541Z,-3.86
2017-01-16T03:04:50.521Z,-3.86
2017-01-16T03:05:50.509Z,-3.88
2017-01-16T03:06:50.480Z,-3.9
2017-01-16T03:07:50.464Z,-3.88
2017-01-16T03:08:50.441Z,-3.83
2017-01-16T03:09:50.426Z,-3.88
2017-01-16T03:10:50.402Z,-3.9
2017-01-16T03:11:50.385Z,-3.93
2017-01-16T03:12:50.366Z,-3.9
2017-01-16T03:13:50.346Z,-3.9
2017-01-16T03:14:50.325Z,-3.91
2017-01-16T03:15:50.706Z,-3.96
2017-01-16T03:16:50.289Z,-3.97
2017-01-16T03:17:50.264Z,-3.93
2017-01-16T03:18:50.247Z,-3.98
2017-01-16T03:19:50.227Z,-3.94
2017-01-16T03:20:50.203Z,-3.96
2017-01-16T03:21:50.187Z,-3.97
2017-01-16T03:22:50.171Z,-3.96
2017-01-16T03:23:50.146Z,-3.91
2017-01-16T03:24:50.125Z,-4.05
2017-01-16T03:25:50.105Z,-4.05
2017-01-16T03:26:50.088Z,-4.06
2017-01-16T03:27:50.067Z,-3.93
2017-01-16T03:28:50.046Z,-4.06
2017-01-16T03:29:50.026Z,-4.01
2017-01-16T03:30:50.033Z,-4.01
2017-01-16T03:31:49.987Z,-4
2017-01-16T03:32:49.971Z,-4
2017-01-16T03:33:49.946Z,-4.01
2017-01-16T03:34:49.926Z,-4.04
2017-01-16T03:35:49.909Z,-4.09
2017-01-16T03:36:49.887Z,-4.14
2017-01-16T03:37:49.872Z,-4.05
2017-01-16T03:38:49.848Z,-4.14
2017-01-16T03:39:50.228Z,-4.05
2017-01-16T03:40:49.813Z,-4.15
2017-01-16T03:41:49.791Z,-4.06
2017-01-16T03:42:49.767Z,-4.08
2017-01-16T03:43:49.748Z,-4.12
2017-01-16T03:44:49.729Z,-4.11
2017-01-16T03:45:49.715Z,-4.06
2017-01-16T03:46:49.691Z,-4.18
2017-01-16T03:47:49.669Z,-4.14
2017-01-16T03:48:50.048Z,-4.14
2017-01-16T03:49:49.632Z,-4.14
2017-01-16T03:50:49.612Z,-4.16
2017-01-16T03:51:49.589Z,-4.11
2017-01-16T03:52:49.570Z,-4.15
2017-01-16T03:53:49.548Z,-4.16
2017-01-16T03:54:49.532Z,-4.12
2017-01-16T03:55:49.512Z,-4.06
2017-01-16T03:56:49.489Z,-4.25
2017-01-16T03:57:49.470Z,-4.26
2017-01-16T03:58:49.447Z,-4.15
2017-01-16T03:59:49.430Z,-4.15
2017-01-16T04:00:49.412Z,-4.27
2017-01-16T04:01:49.390Z,-4.15
2017-01-16T04:02:49.367Z,-4.14
2017-01-16T04:03:49.351Z,-4.11
2017-01-16T04:04:49.331Z,-4.18
2017-01-16T04:05:49.707Z,-4.18
2017-01-16T04:06:49.287Z,-4.12
2017-01-16T04:07:49.269Z,-4.06
2017-01-16T04:08:49.251Z,-4.16
2017-01-16T04:09:49.230Z,-4.19
2017-01-16T04:10:49.214Z,-4.16
2017-01-16T04:11:49.191Z,-4.22
2017-01-16T04:12:49.170Z,-4.15
2017-01-16T04:13:49.151Z,-4.22
2017-01-16T04:14:49.128Z,-4.12
2017-01-16T04:15:49.110Z,-4.12
2017-01-16T04:16:49.088Z,-4.15
2017-01-16T04:17:49.117Z,-4.15
2017-01-16T04:18:49.048Z,-4.12
2017-01-16T04:19:49.030Z,-4.11
2017-01-16T04:20:49.011Z,-4.18
2017-01-16T04:21:48.988Z,-4.08
2017-01-16T04:22:49.190Z,-4.14
2017-01-16T04:23:48.947Z,-4.15
2017-01-16T04:24:48.931Z,-4.16
2017-01-16T04:25:48.909Z,-4.15
2017-01-16T04:26:48.896Z,-4.14
2017-01-16T04:27:48.914Z,-4.08
2017-01-16T04:28:48.850Z,-4.12
2017-01-16T04:29:48.831Z,-4.16
2017-01-16T04:30:48.812Z,-4.08
2017-01-16T04:31:48.792Z,-4.12
2017-01-16T04:32:48.767Z,-4.06
2017-01-16T04:33:48.753Z,-4.08
2017-01-16T04:34:48.730Z,-4.11
2017-01-16T04:35:48.713Z,-4.15
2017-01-16T04:36:48.688Z,-4.08
2017-01-16T04:37:48.719Z,-4.12
2017-01-16T04:38:48.650Z,-4.12
2017-01-16T04:39:48.631Z,-4.09
2017-01-16T04:40:48.610Z,-4.09
2017-01-16T04:41:48.590Z,-4.12
2017-01-16T04:42:48.568Z,-4.12
2017-01-16T04:43:48.552Z,-4.08
2017-01-16T04:44:48.529Z,-4
2017-01-16T04:45:48.510Z,-4.04
2017-01-16T04:46:48.492Z,-4.06
2017-01-16T04:47:48.472Z,-3.98
2017-01-16T04:48:48.450Z,-4.05
2017-01-16T04:49:48.442Z,-4.04
2017-01-16T04:50:48.409Z,-4.05
2017-01-16T04:51:48.390Z,-4.11
2017-01-16T04:52:48.375Z,-4.04
2017-01-16T04:53:48.352Z,-4.06
2017-01-16T04:54:48.331Z,-4
2017-01-16T04:55:48.313Z,-4.04
2017-01-16T04:56:48.294Z,-4.05
2017-01-16T04:57:48.271Z,-4.04
2017-01-16T04:58:48.251Z,-4.05
2017-01-16T04:59:48.231Z,-3.97
2017-01-16T05:00:48.214Z,-3.98
2017-01-16T05:01:48.190Z,-4.05
2017-01-16T05:02:48.176Z,-4.06
2017-01-16T05:03:48.150Z,-4
2017-01-16T05:04:48.135Z,-4.05
2017-01-16T05:05:48.112Z,-4.01
2017-01-16T05:06:48.093Z,-4
2017-01-16T05:07:48.072Z,-4.01
2017-01-16T05:08:48.052Z,-4.06
2017-01-16T05:09:48.036Z,-4.05
2017-01-16T05:10:48.014Z,-4.06
2017-01-16T05:11:47.994Z,-4.01
2017-01-16T05:12:47.977Z,-4.05
2017-01-16T05:13:47.953Z,-4.08
2017-01-16T05:14:47.934Z,-4.01
2017-01-16T05:15:47.911Z,-4.05
2017-01-16T05:16:47.896Z,-3.96
2017-01-16T05:17:47.875Z,-4.06
2017-01-16T05:18:47.855Z,-4.08
2017-01-16T05:19:47.833Z,-4.05
2017-01-16T05:20:47.812Z,-4.06
2017-01-16T05:21:47.798Z,-3.94
2017-01-16T05:22:47.774Z,-4.01
2017-01-16T05:23:47.781Z,-4
2017-01-16T05:24:47.733Z,-4.05
2017-01-16T05:25:47.718Z,-4
2017-01-16T05:26:47.695Z,-4
2017-01-16T05:27:47.675Z,-4.04
2017-01-16T05:28:47.653Z,-4.08
2017-01-16T05:29:47.633Z,-3.98
2017-01-16T05:30:47.619Z,-4.11
2017-01-16T05:31:47.596Z,-4.06
2017-01-16T05:32:47.579Z,-4.05
2017-01-16T05:33:47.553Z,-3.98
2017-01-16T05:34:47.534Z,-4.15
2017-01-16T05:35:47.516Z,-4.15
2017-01-16T05:36:47.493Z,-4.04
2017-01-16T05:37:47.479Z,-4.09
2017-01-16T05:38:47.457Z,-4.11
2017-01-16T05:39:47.435Z,-4.14
2017-01-16T05:40:47.428Z,-4.08
2017-01-16T05:41:47.399Z,-4.06
2017-01-16T05:42:47.374Z,-4.18
2017-01-16T05:43:47.362Z,-4.16
2017-01-16T05:44:47.337Z,-4.12
2017-01-16T05:45:47.315Z,-4.18
2017-01-16T05:46:47.297Z,-4.16
2017-01-16T05:47:47.273Z,-4.15
2017-01-16T05:48:47.256Z,-4.15
2017-01-16T05:49:47.235Z,-4.16
2017-01-16T05:50:47.213Z,-4.16
2017-01-16T05:51:47.195Z,-4.23
2017-01-16T05:52:47.177Z,-4.11
2017-01-16T05:53:47.154Z,-4.15
2017-01-16T05:54:47.138Z,-4.26
2017-01-16T05:55:47.143Z,-4.25
2017-01-16T05:56:47.092Z,-4.15
2017-01-16T05:57:47.074Z,-4.23
2017-01-16T05:58:47.051Z,-4.25
2017-01-16T05:59:47.035Z,-4.26
2017-01-16T06:00:47.017Z,-4.27
2017-01-16T06:01:46.997Z,-4.23
2017-01-16T06:02:46.973Z,-4.3
2017-01-16T06:03:46.952Z,-4.3
2017-01-16T06:04:46.933Z,-4.19
2017-01-16T06:05:47.316Z,-4.27
2017-01-16T06:06:46.894Z,-4.27
2017-01-16T06:07:46.871Z,-4.18
2017-01-16T06:08:46.854Z,-4.23
2017-01-16T06:09:46.833Z,-4.22
2017-01-16T06:10:46.816Z,-4.25
2017-01-16T06:11:46.792Z,-4.25
2017-01-16T06:12:46.774Z,-4.29
2017-01-16T06:13:46.752Z,-4.32
2017-01-16T06:14:47.131Z,-4.29
2017-01-16T06:15:46.713Z,-4.23
2017-01-16T06:16:46.694Z,-4.25
2017-01-16T06:17:46.671Z,-4.23
2017-01-16T06:18:46.650Z,-4.29
2017-01-16T06:19:46.633Z,-4.22
2017-01-16T06:20:46.613Z,-4.18
2017-01-16T06:21:46.598Z,-4.18
2017-01-16T06:22:46.569Z,-4.29
2017-01-16T06:23:46.550Z,-4.22
2017-01-16T06:24:46.530Z,-4.23
2017-01-16T06:25:46.510Z,-4.26
2017-01-16T06:26:46.489Z,-4.32
2017-01-16T06:27:46.467Z,-4.23
2017-01-16T06:28:46.450Z,-4.34
2017-01-16T06:29:46.849Z,-4.29
2017-01-16T06:30:46.447Z,-4.33
2017-01-16T06:31:46.389Z,-4.23
2017-01-16T06:32:46.367Z,-4.23
2017-01-16T06:33:46.345Z,-4.19
2017-01-16T06:34:46.332Z,-4.32
2017-01-16T06:35:46.310Z,-4.29
2017-01-16T06:36:46.291Z,-4.19
2017-01-16T06:37:46.267Z,-4.23
2017-01-16T06:38:46.245Z,-4.23
2017-01-16T06:39:46.226Z,-4.23
2017-01-16T06:40:46.205Z,-4.23
2017-01-16T06:41:46.186Z,-4.23
2017-01-16T06:42:46.164Z,-4.27
2017-01-16T06:43:46.147Z,-4.41
2017-01-16T06:44:46.125Z,-4.41
2017-01-16T06:45:46.110Z,-4.37
2017-01-16T06:46:46.084Z,-4.3
2017-01-16T06:47:46.063Z,-4.41
2017-01-16T06:48:46.043Z,-4.29
2017-01-16T06:49:46.025Z,-4.26
2017-01-16T06:50:46.004Z,-4.22
2017-01-16T06:51:45.986Z,-4.27
2017-01-16T06:52:45.965Z,-4.34
2017-01-16T06:53:46.340Z,-4.29
2017-01-16T06:54:45.920Z,-4.36
2017-01-16T06:55:45.910Z,-4.32
2017-01-16T06:56:45.883Z,-4.34
2017-01-16T06:57:45.863Z,-4.36
2017-01-16T06:58:45.844Z,-4.33
2017-01-16T06:59:45.821Z,-4.29
2017-01-16T07:00:45.799Z,-4.37
2017-01-16T07:01:45.781Z,-4.34
2017-01-16T07:02:45.761Z,-4.27
2017-01-16T07:03:45.741Z,-4.36
2017-01-16T07:04:45.729Z,-4.36
2017-01-16T07:05:45.703Z,-4.26
2017-01-16T07:06:45.681Z,-4.22
2017-01-16T07:07:45.659Z,-4.23
2017-01-16T07:08:45.643Z,-4.25
2017-01-16T07:09:45.620Z,-4.23
2017-01-16T07:10:45.596Z,-4.26
2017-01-16T07:11:45.581Z,-4.25
2017-01-16T07:12:45.561Z,-4.3
2017-01-16T07:13:45.542Z,-4.32
2017-01-16T07:14:45.520Z,-4.23
2017-01-16T07:15:45.510Z,-4.23
2017-01-16T07:16:45.478Z,-4.29
2017-01-16T07:17:45.459Z,-4.26
2017-01-16T07:18:45.436Z,-4.18
2017-01-16T07:19:45.416Z,-4.25
2017-01-16T07:20:45.398Z,-4.23
2017-01-16T07:21:45.374Z,-4.19
2017-01-16T07:22:45.359Z,-4.19
2017-01-16T07:23:45.338Z,-4.26
2017-01-16T07:24:45.314Z,-4.26
2017-01-16T07:25:45.297Z,-4.29
2017-01-16T07:26:45.277Z,-4.16
2017-01-16T07:27:45.255Z,-4.16
2017-01-16T07:28:45.236Z,-4.26
2017-01-16T07:29:45.218Z,-4.25
2017-01-16T07:30:45.192Z,-4.25
2017-01-16T07:31:45.177Z,-4.14
2017-01-16T07:32:45.155Z,-4.08
2017-01-16T07:33:45.138Z,-4.11
2017-01-16T07:34:45.116Z,-4.16
2017-01-16T07:35:45.093Z,-4.15
2017-01-16T07:36:45.074Z,-4.08
2017-01-16T07:37:45.055Z,-4.08
2017-01-16T07:38:45.036Z,-4.11
2017-01-16T07:39:45.014Z,-4.11
2017-01-16T07:40:44.998Z,-4.15
2017-01-16T07:41:44.973Z,-4.14
2017-01-16T07:42:44.955Z,-4.14
2017-01-16T07:43:44.945Z,-4.09
2017-01-16T07:44:44.915Z,-4.12
2017-01-16T07:45:44.898Z,-4.12
2017-01-16T07:46:44.876Z,-4.14
2017-01-16T07:47:44.855Z,-4.15
2017-01-16T07:48:44.836Z,-4.08
2017-01-16T07:49:44.816Z,-4.14
2017-01-16T07:50:44.790Z,-4.14
2017-01-16T07:51:44.780Z,-3.98
2017-01-16T07:52:44.751Z,-4.01
2017-01-16T07:53:44.734Z,-3.96
2017-01-16T07:54:44.713Z,-4.05
2017-01-16T07:55:44.698Z,-4.05
2017-01-16T07:56:44.672Z,-3.91
2017-01-16T07:57:44.652Z,-3.98
2017-01-16T07:58:44.632Z,-3.96
2017-01-16T07:59:44.618Z,-3.97
2017-01-16T08:00:44.599Z,-4.01
2017-01-16T08:01:44.576Z,-3.98
2017-01-16T08:02:44.553Z,-4.01
2017-01-16T08:03:44.533Z,-3.91
2017-01-16T08:04:44.512Z,-3.91
2017-01-16T08:05:44.506Z,-4
2017-01-16T08:06:44.474Z,-3.9
2017-01-16T08:07:44.451Z,-3.9
2017-01-16T08:08:44.439Z,-3.87
2017-01-16T08:09:44.419Z,-3.94
2017-01-16T08:10:44.395Z,-3.9
2017-01-16T08:11:44.372Z,-3.83
2017-01-16T08:12:44.356Z,-3.87
2017-01-16T08:13:44.333Z,-3.83
2017-01-16T08:14:44.313Z,-3.8
2017-01-16T08:15:44.293Z,-3.9
2017-01-16T08:16:44.274Z,-3.87
2017-01-16T08:17:44.253Z,-3.91
2017-01-16T08:18:44.232Z,-3.88
2017-01-16T08:19:44.213Z,-3.87
2017-01-16T08:20:44.197Z,-3.9
2017-01-16T08:21:44.173Z,-3.83
2017-01-16T08:22:44.506Z,-3.82
2017-01-16T08:23:44.130Z,-3.82
2017-01-16T08:24:44.115Z,-3.82
2017-01-16T08:25:44.096Z,-3.79
2017-01-16T08:26:44.072Z,-3.8
2017-01-16T08:27:44.468Z,-3.87
2017-01-16T08:28:44.036Z,-3.79
2017-01-16T08:29:44.015Z,-3.75
2017-01-16T08:30:44.391Z,-3.66
2017-01-16T08:31:43.976Z,-3.69
2017-01-16T08:32:43.956Z,-3.6
2017-01-16T08:33:43.939Z,-3.57
2017-01-16T08:34:43.914Z,-3.57
2017-01-16T08:35:43.932Z,-3.56
2017-01-16T08:36:43.876Z,-3.63
2017-01-16T08:37:43.858Z,-3.6
2017-01-16T08:38:43.839Z,-3.61
2017-01-16T08:39:43.820Z,-3.57
2017-01-16T08:40:43.800Z,-3.71
2017-01-16T08:41:43.777Z,-3.57
2017-01-16T08:42:43.760Z,-3.6
2017-01-16T08:43:43.738Z,-3.6
2017-01-16T08:44:43.719Z,-3.63
2017-01-16T08:45:43.715Z,-3.58
2017-01-16T08:46:43.681Z,-3.57
2017-01-16T08:47:43.660Z,-3.56
2017-01-16T08:48:43.642Z,-3.54
2017-01-16T08:49:43.620Z,-3.56
2017-01-16T08:50:43.605Z,-3.57
2017-01-16T08:51:43.585Z,-3.58
2017-01-16T08:52:43.564Z,-3.56
2017-01-16T08:53:43.541Z,-3.57
2017-01-16T08:54:43.521Z,-3.54
2017-01-16T08:55:43.502Z,-3.56
2017-01-16T08:56:43.481Z,-3.51
2017-01-16T08:57:43.458Z,-3.47
2017-01-16T08:58:43.441Z,-3.5
2017-01-16T08:59:43.439Z,-3.5
2017-01-16T09:00:43.405Z,-3.39
2017-01-16T09:01:43.382Z,-3.48
2017-01-16T09:02:43.365Z,-3.4
2017-01-16T09:03:43.350Z,-3.33
2017-01-16T09:04:43.326Z,-3.33
2017-01-16T09:05:43.306Z,-3.35
2017-01-16T09:06:43.285Z,-3.32
2017-01-16T09:07:43.267Z,-3.28
2017-01-16T09:08:43.246Z,-3.32
2017-01-16T09:09:43.227Z,-3.35
2017-01-16T09:10:43.213Z,-3.3
2017-01-16T09:11:43.199Z,-3.25
2017-01-16T09:12:43.171Z,-3.33
2017-01-16T09:13:43.152Z,-3.18
2017-01-16T09:14:43.130Z,-3.09
2017-01-16T09:15:43.110Z,-3.17
2017-01-16T09:16:43.094Z,-3.15
2017-01-16T09:17:43.074Z,-3.11
2017-01-16T09:18:43.060Z,-3.18
2017-01-16T09:19:43.034Z,-3.11
2017-01-16T09:20:43.014Z,-3.04
2017-01-16T09:21:42.995Z,-3.09
2017-01-16T09:22:42.976Z,-2.96
2017-01-16T09:23:42.956Z,-3
2017-01-16T09:24:42.938Z,-2.9
2017-01-16T09:25:42.922Z,-2.88
2017-01-16T09:26:42.899Z,-2.91
2017-01-16T09:27:42.879Z,-2.91
2017-01-16T09:28:42.860Z,-2.85
2017-01-16T09:29:42.843Z,-2.88
2017-01-16T09:30:42.823Z,-2.96
2017-01-16T09:31:42.802Z,-2.83
2017-01-16T09:32:42.784Z,-2.93
2017-01-16T09:33:42.764Z,-2.85
2017-01-16T09:34:42.747Z,-2.86
2017-01-16T09:35:42.726Z,-2.88
2017-01-16T09:36:42.708Z,-2.93
2017-01-16T09:37:42.691Z,-2.96
2017-01-16T09:38:42.670Z,-2.9
2017-01-16T09:39:42.650Z,-2.83
2017-01-16T09:40:42.633Z,-2.81
2017-01-16T09:41:42.613Z,-2.76
2017-01-16T09:42:42.593Z,-2.81
2017-01-16T09:43:42.573Z,-2.78
2017-01-16T09:44:42.553Z,-2.78
2017-01-16T09:45:42.540Z,-2.72
2017-01-16T09:46:42.514Z,-2.67
2017-01-16T09:47:42.497Z,-2.65
2017-01-16T09:48:42.477Z,-2.58
2017-01-16T09:49:42.461Z,-2.68
2017-01-16T09:50:42.443Z,-2.67
2017-01-16T09:51:42.426Z,-2.75
2017-01-16T09:52:42.404Z,-2.76
2017-01-16T09:53:42.383Z,-2.68
2017-01-16T09:54:42.365Z,-2.75
2017-01-16T09:55:42.344Z,-2.75
2017-01-16T09:56:42.327Z,-2.7
2017-01-16T09:57:42.310Z,-2.78
2017-01-16T09:58:42.290Z,-2.78
2017-01-16T09:59:42.270Z,-2.68
2017-01-16T10:00:42.250Z,-2.75
2017-01-16T10:01:42.232Z,-2.68
2017-01-16T10:02:42.214Z,-2.58
2017-01-16T10:03:42.195Z,-2.65
2017-01-16T10:04:42.186Z,-2.64
2017-01-16T10:05:42.156Z,-2.62
2017-01-16T10:06:42.139Z,-2.61
2017-01-16T10:07:42.118Z,-2.64
2017-01-16T10:08:42.099Z,-2.64
2017-01-16T10:09:42.076Z,-2.6
2017-01-16T10:10:42.059Z,-2.5
2017-01-16T10:11:42.041Z,-2.55
2017-01-16T10:12:42.023Z,-2.49
2017-01-16T10:13:42.005Z,-2.6
2017-01-16T10:14:41.983Z,-2.47
2017-01-16T10:15:41.965Z,-2.49
2017-01-16T10:16:41.952Z,-2.53
2017-01-16T10:17:41.930Z,-2.54
2017-01-16T10:18:41.910Z,-2.47
2017-01-16T10:19:41.892Z,-2.58
2017-01-16T10:20:41.870Z,-2.46
2017-01-16T10:21:41.854Z,-2.55
2017-01-16T10:22:41.856Z,-2.53
2017-01-16T10:23:41.817Z,-2.5
2017-01-16T10:24:41.797Z,-2.54
2017-01-16T10:25:41.776Z,-2.4
2017-01-16T10:26:41.758Z,-2.39
2017-01-16T10:27:41.747Z,-2.37
2017-01-16T10:28:41.719Z,-2.43
2017-01-16T10:29:41.700Z,-2.34
2017-01-16T10:30:41.688Z,-2.43
2017-01-16T10:31:41.663Z,-2.4
2017-01-16T10:32:41.652Z,-2.39
2017-01-16T10:33:41.626Z,-2.4
2017-01-16T10:34:41.610Z,-2.24
2017-01-16T10:35:41.589Z,-2.23
2017-01-16T10:36:41.571Z,-2.15
2017-01-16T10:37:41.558Z,-2.09
2017-01-16T10:38:41.537Z,-2.09
2017-01-16T10:39:41.519Z,-2.15
2017-01-16T10:40:41.491Z,-2.18
2017-01-16T10:41:41.477Z,-2.17
2017-01-16T10:42:41.458Z,-2.07
2017-01-16T10:43:41.440Z,-2.06
2017-01-16T10:44:41.418Z,-2.07
2017-01-16T10:45:41.423Z,-2.06
2017-01-16T10:46:41.394Z,-2.07
2017-01-16T10:47:41.365Z,-2.09
2017-01-16T10:48:41.347Z,-2.24
2017-01-16T10:49:41.330Z,-2.14
2017-01-16T10:50:41.311Z,-2.24
2017-01-16T10:51:41.299Z,-2.24
2017-01-16T10:52:41.272Z,-2.36
2017-01-16T10:53:41.254Z,-2.4
2017-01-16T10:54:41.249Z,-2.32
2017-01-16T10:55:41.219Z,-2.4
2017-01-16T10:56:41.198Z,-2.34
2017-01-16T10:57:41.179Z,-2.36
2017-01-16T10:58:41.159Z,-2.37
2017-01-16T10:59:41.142Z,-2.43
2017-01-16T11:00:41.120Z,-2.39
2017-01-16T11:01:41.105Z,-2.36
2017-01-16T11:02:41.085Z,-2.39
2017-01-16T11:03:41.066Z,-2.42
2017-01-16T11:04:41.051Z,-2.53
2017-01-16T11:05:41.034Z,-2.54
2017-01-16T11:06:41.009Z,-2.5
2017-01-16T11:07:40.988Z,-2.5
2017-01-16T11:08:40.972Z,-2.37
2017-01-16T11:09:40.953Z,-2.43
2017-01-16T11:10:40.935Z,-2.4
2017-01-16T11:11:40.934Z,-2.49
2017-01-16T11:12:40.896Z,-2.49
2017-01-16T11:13:40.881Z,-2.55
2017-01-16T11:14:40.860Z,-2.61
2017-01-16T11:15:40.839Z,-2.67
2017-01-16T11:16:40.820Z,-2.65
2017-01-16T11:17:40.804Z,-2.67
2017-01-16T11:18:40.783Z,-2.58
2017-01-16T11:19:40.768Z,-2.62
2017-01-16T11:20:40.746Z,-2.54
2017-01-16T11:21:40.725Z,-2.49
2017-01-16T11:22:40.707Z,-2.46
2017-01-16T11:23:40.687Z,-2.47
2017-01-16T11:24:40.670Z,-2.47
2017-01-16T11:25:40.652Z,-2.42
2017-01-16T11:26:40.630Z,-2.57
2017-01-16T11:27:40.613Z,-2.47
2017-01-16T11:28:40.594Z,-2.53
2017-01-16T11:29:40.571Z,-2.5
2017-01-16T11:30:40.555Z,-2.49
2017-01-16T11:31:40.540Z,-2.53
2017-01-16T11:32:40.530Z,-2.49
2017-01-16T11:33:40.498Z,-2.6
2017-01-16T11:34:40.478Z,-2.57
2017-01-16T11:35:40.461Z,-2.57
2017-01-16T11:36:40.439Z,-2.67
2017-01-16T11:37:40.422Z,-2.68
2017-01-16T11:38:40.409Z,-2.68
2017-01-16T11:39:40.383Z,-2.6
2017-01-16T11:40:40.364Z,-2.64
2017-01-16T11:41:40.342Z,-2.67
2017-01-16T11:42:40.325Z,-2.78
2017-01-16T11:43:40.305Z,-2.72
2017-01-16T11:44:40.285Z,-2.76
2017-01-16T11:45:40.267Z,-2.79
2017-01-16T11:46:40.248Z,-2.83
2017-01-16T11:47:40.231Z,-2.76
2017-01-16T11:48:40.215Z,-2.7
2017-01-16T11:49:40.189Z,-2.64
2017-01-16T11:50:40.169Z,-2.61
2017-01-16T11:51:40.153Z,-2.61
2017-01-16T11:52:40.133Z,-2.61
2017-01-16T11:53:40.112Z,-2.53
2017-01-16T11:54:40.096Z,-2.49
2017-01-16T11:55:40.081Z,-2.54
2017-01-16T11:56:40.057Z,-2.5
2017-01-16T11:57:40.036Z,-2.47
2017-01-16T11:58:40.020Z,-2.5
2017-01-16T11:59:40.001Z,-2.4
2017-01-16T12:00:40.002Z,-2.37
2017-01-16T12:01:39.962Z,-2.32
2017-01-16T12:02:39.943Z,-2.24
2017-01-16T12:03:39.925Z,-2.24
2017-01-16T12:04:39.908Z,-2.24
2017-01-16T12:05:39.892Z,-2.21
2017-01-16T12:06:39.872Z,-2.23
2017-01-16T12:07:39.846Z,-2.25
2017-01-16T12:08:39.826Z,-2.25
2017-01-16T12:09:39.811Z,-2.39
2017-01-16T12:10:39.790Z,-2.24
2017-01-16T12:11:39.775Z,-2.42
2017-01-16T12:12:39.752Z,-2.39
2017-01-16T12:13:39.741Z,-2.4
2017-01-16T12:14:40.430Z,-2.43
2017-01-16T12:15:39.697Z,-2.4
2017-01-16T12:16:39.692Z,-2.42
2017-01-16T12:17:39.658Z,-2.34
2017-01-16T12:18:39.639Z,-2.39
2017-01-16T12:19:39.618Z,-2.36
2017-01-16T12:20:39.601Z,-2.36
2017-01-16T12:21:39.585Z,-2.42
2017-01-16T12:22:39.561Z,-2.36
2017-01-16T12:23:39.543Z,-2.43
2017-01-16T12:24:39.530Z,-2.36
2017-01-16T12:25:39.506Z,-2.46
2017-01-16T12:26:39.487Z,-2.27
2017-01-16T12:27:39.468Z,-2.23
2017-01-16T12:28:39.448Z,-2.25
2017-01-16T12:29:39.429Z,-2.09
2017-01-16T12:30:39.411Z,-2.05
2017-01-16T12:31:39.391Z,-2.06
2017-01-16T12:32:39.375Z,-2.2
2017-01-16T12:33:39.353Z,-2.17
2017-01-16T12:34:39.338Z,-2.18
2017-01-16T12:35:39.318Z,-2.24
2017-01-16T12:36:39.302Z,-2.24
2017-01-16T12:37:39.277Z,-2.2
2017-01-16T12:38:39.288Z,-2.27
2017-01-16T12:39:39.239Z,-2.37
2017-01-16T12:40:39.221Z,-2.37
2017-01-16T12:41:39.204Z,-2.34
2017-01-16T12:42:39.184Z,-2.4
2017-01-16T12:43:39.167Z,-2.37
2017-01-16T12:44:39.150Z,-2.32
2017-01-16T12:45:39.129Z,-2.36
2017-01-16T12:46:39.108Z,-2.21
2017-01-16T12:47:39.090Z,-2.17
2017-01-16T12:48:39.071Z,-2.18
2017-01-16T12:49:39.053Z,-2.2
2017-01-16T12:50:39.036Z,-2.12
2017-01-16T12:51:39.015Z,-2.18
2017-01-16T12:52:38.994Z,-2.25
2017-01-16T12:53:38.976Z,-2.43
2017-01-16T12:54:38.961Z,-2.42
2017-01-16T12:55:38.939Z,-2.39
2017-01-16T12:56:38.924Z,-2.4